Tenjinmaru No11 — JD3353 — position and weather

sailwx.info

Track history (hours):
 
Tides and Currents Weather Stations Pressure Air Temp Water Temp Dewpoint Dewpoint Depression Visibility Wind Speed Wind Dir Waves Ship Positions

Tenjinmaru No11

Last reported at 2018-Apr-23 09:30 UTC. Time now 2018-Apr-23 09:52 UTC.
Position N 35°21' E 139°40'.

Length 75 m; draft 4.8 m.

Type: Cargo ship. MMSI: 431003485.

Date/timePositionNaut miles runAvg speedWind from/ knotsBaromVisibWave heightAir tempDewpointWater temp
2018-Apr-23 09:30N 35°21' E 139°40'0 0.0
2018-Apr-23 09:01N 35°21' E 139°40'0 0.0
2018-Apr-23 08:30N 35°21' E 139°40'0 0.0
2018-Apr-23 08:00N 35°21' E 139°40'0 0.0
2018-Apr-23 07:30N 35°21' E 139°40'0 0.0
2018-Apr-23 07:00N 35°21' E 139°40'0 0.0
2018-Apr-23 06:30N 35°21' E 139°40'0 0.0
2018-Apr-23 06:00N 35°21' E 139°40'0 0.0
2018-Apr-23 05:30N 35°21' E 139°40'0 0.0
2018-Apr-23 05:00N 35°21' E 139°40'1 1.7
2018-Apr-23 04:30N 35°22' E 139°41'510.4
2018-Apr-23 04:01N 35°27' E 139°43'0 0.1
2018-Apr-23 03:28N 35°27' E 139°43'0 0.0
2018-Apr-23 03:00N 35°27' E 139°43'0 0.0
2018-Apr-23 02:28N 35°27' E 139°43'1 1.8
2018-Apr-23 02:01N 35°26' E 139°43'510.7
2018-Apr-23 01:30N 35°23' E 139°49'3 4.8
2018-Apr-23 00:54N 35°21' E 139°51'0 0.0
2018-Apr-23 00:30N 35°21' E 139°51'0 0.1
2018-Apr-22 23:52N 35°21' E 139°51'0 0.2
2018-Apr-22 23:30N 35°21' E 139°51'0 0.2
2018-Apr-22 22:59N 35°21' E 139°51'0 0.4
2018-Apr-22 22:29N 35°21' E 139°51'0 0.7
2018-Apr-22 22:00N 35°21' E 139°51'0 0.4
2018-Apr-22 21:28N 35°21' E 139°51'0 0.2
2018-Apr-22 20:53N 35°21' E 139°51'0 0.1
2018-Apr-22 20:21N 35°21' E 139°51'0 0.0
2018-Apr-22 19:19N 35°21' E 139°51'0 0.2
2018-Apr-22 18:58N 35°21' E 139°51'0 0.0
2018-Apr-22 18:29N 35°21' E 139°51'0 0.0
2018-Apr-22 17:35N 35°21' E 139°51'0 0.5
2018-Apr-22 17:30N 35°21' E 139°51'0 0.0
2018-Apr-22 17:00N 35°21' E 139°51'0 0.2
2018-Apr-22 16:30N 35°21' E 139°51'0 0.1
2018-Apr-22 16:00N 35°21' E 139°51'0 0.2
2018-Apr-22 15:30N 35°21' E 139°51'0 0.0
2018-Apr-22 15:00N 35°21' E 139°51'0 0.0
2018-Apr-22 14:30N 35°21' E 139°51'2 3.1
2018-Apr-22 14:00N 35°22' E 139°50'0 0.7
2018-Apr-22 13:31N 35°22' E 139°49'0 0.0
2018-Apr-22 13:01N 35°22' E 139°49'0 0.0
2018-Apr-22 12:31N 35°22' E 139°49'0 0.0
2018-Apr-22 12:00N 35°22' E 139°49'0 0.0
2018-Apr-22 11:31N 35°22' E 139°49'0 0.0
2018-Apr-22 11:00N 35°22' E 139°49'0 0.0
2018-Apr-22 10:31N 35°22' E 139°49'0 0.0
2018-Apr-22 10:01N 35°22' E 139°49'0 0.0
2018-Apr-22 09:30N 35°22' E 139°49'0 0.0
2018-Apr-22 09:00N 35°22' E 139°49'0 0.0
2018-Apr-22 08:30N 35°22' E 139°49'0 0.0
2018-Apr-22 08:00N 35°22' E 139°49'0 0.0
2018-Apr-22 07:30N 35°22' E 139°49'0 0.0
2018-Apr-22 07:00N 35°22' E 139°49'0 0.0
2018-Apr-22 06:30N 35°22' E 139°49'0 0.0
2018-Apr-22 06:00N 35°22' E 139°49'0 0.0
2018-Apr-22 05:30N 35°22' E 139°49'2 3.2
2018-Apr-22 05:00N 35°23' E 139°50'611.1
2018-Apr-22 04:30N 35°29' E 139°51'611.2
2018-Apr-22 03:59N 35°34' E 139°55'511.2
2018-Apr-22 03:30N 35°38' E 139°58'2 0.5
2018-Apr-21 23:01N 35°41' E 139°58'2 8.0
2018-Apr-21 22:47N 35°39' E 139°58'2 5.7
2018-Apr-21 22:29N 35°37' E 139°58'3 5.4
2018-Apr-21 22:01N 35°35' E 139°56'510.3
2018-Apr-21 21:30N 35°30' E 139°53'510.3
2018-Apr-21 21:00N 35°26' E 139°49'510.1
2018-Apr-21 20:31N 35°22' E 139°46'5 9.7
2018-Apr-21 20:00N 35°17' E 139°45'510.7
2018-Apr-21 19:30N 35°12' E 139°47'611.1
2018-Apr-21 19:00N 35°07' E 139°45'510.8
2018-Apr-21 18:30N 35°03' E 139°40'510.7
2018-Apr-21 18:01N 34°59' E 139°35'611.7
2018-Apr-21 17:29N 34°56' E 139°30'712.4
2018-Apr-21 16:58N 34°52' E 139°23'612.7
2018-Apr-21 16:29N 34°49' E 139°17'1112.7
2018-Apr-21 15:39N 34°42' E 139°07'212.3
2018-Apr-21 15:30N 34°41' E 139°05'611.5
2018-Apr-21 15:00N 34°37' E 138°60'711.1
2018-Apr-21 14:25N 34°34' E 138°53'511.6
2018-Apr-21 14:00N 34°34' E 138°47'711.6
2018-Apr-21 13:25N 34°33' E 138°39'511.5
2018-Apr-21 12:59N 34°32' E 138°33'511.3
2018-Apr-21 12:30N 34°32' E 138°26'611.2
2018-Apr-21 11:59N 34°32' E 138°19'711.3
2018-Apr-21 11:22N 34°31' E 138°11'611.7
2018-Apr-21 10:51N 34°30' E 138°03'1911.6
2018-Apr-21 09:15N 34°25' E 137°42'1111.5
2018-Apr-21 08:15N 34°21' E 137°29'711.5
2018-Apr-21 07:38N 34°19' E 137°20'1311.3
2018-Apr-21 06:26N 34°15' E 137°05'1711.1
2018-Apr-21 04:55N 34°05' E 136°48'511.3
2018-Apr-21 04:30N 34°03' E 136°44'611.4
2018-Apr-21 03:57N 33°59' E 136°38'1611.2
2018-Apr-21 02:31N 33°49' E 136°22'110.9
2018-Apr-21 02:24N 33°48' E 136°21'65 8.5
2018-Apr-20 18:42N 33°50' E 135°02'211.6
2018-Apr-20 18:31N 33°52' E 135°00'611.6
2018-Apr-20 18:00N 33°56' E 134°56'611.5
2018-Apr-20 17:31N 34°01' E 134°51'611.5
2018-Apr-20 17:00N 34°05' E 134°47'611.5
2018-Apr-20 16:28N 34°10' E 134°43'511.5
2018-Apr-20 16:00N 34°14' E 134°39'5 9.9
2018-Apr-20 15:30N 34°18' E 134°35'510.0
2018-Apr-20 15:01N 34°21' E 134°30'0 0.1
2018-Apr-20 14:30N 34°21' E 134°30'0 0.5
2018-Apr-20 14:00N 34°21' E 134°30'0 0.3
2018-Apr-20 13:30N 34°21' E 134°30'0 1.0
2018-Apr-20 13:00N 34°21' E 134°30'4 9.0
2018-Apr-20 12:31N 34°22' E 134°25'5 9.7
2018-Apr-20 12:00N 34°23' E 134°19'5 9.2
2018-Apr-20 11:30N 34°24' E 134°13'76 9.7
2018-Apr-20 03:40N 34°01' E 132°46'211.8
2018-Apr-20 03:30N 33°59' E 132°44'611.8
2018-Apr-20 03:00N 33°55' E 132°40'2911.1
2018-Apr-20 00:21N 33°42' E 132°08'410.6
2018-Apr-20 00:00N 33°42' E 132°04'510.5
2018-Apr-19 23:30N 33°43' E 131°58'510.5
2018-Apr-19 23:00N 33°44' E 131°52'610.9
2018-Apr-19 22:30N 33°45' E 131°45'611.1
2018-Apr-19 22:00N 33°46' E 131°39'611.6
2018-Apr-19 21:30N 33°48' E 131°32'611.7
2018-Apr-19 20:58N 33°49' E 131°24'611.7
2018-Apr-19 20:30N 33°50' E 131°18'612.0
2018-Apr-19 20:00N 33°52' E 131°11'612.1
2018-Apr-19 19:30N 33°55' E 131°05'611.4
2018-Apr-19 19:00N 33°58' E 130°59'611.2
2018-Apr-19 18:31N 33°54' E 130°55'2 3.8
2018-Apr-19 18:00N 33°54' E 130°53'0 0.0
2018-Apr-19 17:30N 33°54' E 130°53'0 0.0
2018-Apr-19 17:00N 33°54' E 130°53'0 0.0
2018-Apr-19 16:30N 33°54' E 130°53'0 0.0
2018-Apr-19 16:00N 33°54' E 130°53'0 0.0
2018-Apr-19 15:30N 33°54' E 130°53'0 0.0
2018-Apr-19 15:00N 33°54' E 130°53'0 0.0
2018-Apr-19 14:30N 33°54' E 130°53'0 0.0
2018-Apr-19 14:00N 33°54' E 130°53'0 0.0
2018-Apr-19 13:30N 33°54' E 130°53'0 0.0
2018-Apr-19 13:00N 33°54' E 130°53'0 0.0
2018-Apr-19 12:30N 33°54' E 130°53'0 0.0
2018-Apr-19 12:00N 33°54' E 130°53'0 0.0
2018-Apr-19 11:30N 33°54' E 130°53'0 0.0
2018-Apr-19 11:00N 33°54' E 130°53'0 0.0
2018-Apr-19 10:30N 33°54' E 130°53'0 0.0
2018-Apr-19 10:00N 33°54' E 130°53'0 0.0
2018-Apr-19 09:30N 33°54' E 130°53'0 0.0
2018-Apr-19 09:00N 33°54' E 130°53'0 0.0
2018-Apr-19 08:30N 33°54' E 130°53'0 0.0
2018-Apr-19 08:00N 33°54' E 130°53'0 0.0
2018-Apr-19 07:30N 33°54' E 130°53'0 0.0
2018-Apr-19 07:00N 33°54' E 130°53'0 0.0
2018-Apr-19 06:30N 33°54' E 130°53'0 0.0
2018-Apr-19 06:00N 33°54' E 130°53'0 0.0
2018-Apr-19 05:30N 33°54' E 130°53'0 0.0
2018-Apr-19 05:00N 33°54' E 130°53'0 0.0
2018-Apr-19 04:30N 33°54' E 130°53'0 0.0
2018-Apr-19 04:00N 33°54' E 130°53'0 0.0
2018-Apr-19 03:30N 33°54' E 130°53'0 0.0
2018-Apr-19 03:00N 33°54' E 130°53'0 0.0
2018-Apr-19 02:30N 33°54' E 130°53'0 0.0
2018-Apr-19 02:00N 33°54' E 130°53'0 0.0
2018-Apr-19 01:30N 33°54' E 130°53'0 0.0
2018-Apr-19 01:00N 33°54' E 130°53'0 0.0
2018-Apr-19 00:30N 33°54' E 130°53'0 0.0
2018-Apr-19 00:00N 33°54' E 130°53'0 0.0
2018-Apr-18 23:30N 33°54' E 130°53'0 0.0
2018-Apr-18 23:00N 33°54' E 130°53'0 0.0
2018-Apr-18 22:30N 33°54' E 130°53'0 0.0
2018-Apr-18 22:00N 33°54' E 130°53'0 0.0
2018-Apr-18 21:30N 33°54' E 130°53'0 0.0
2018-Apr-18 21:00N 33°54' E 130°53'0 0.0
2018-Apr-18 20:30N 33°54' E 130°53'0 0.0
2018-Apr-18 20:00N 33°54' E 130°53'0 0.0
2018-Apr-18 19:30N 33°54' E 130°53'0 0.0
2018-Apr-18 19:00N 33°54' E 130°53'0 0.0
2018-Apr-18 18:30N 33°54' E 130°53'0 0.0
2018-Apr-18 18:00N 33°54' E 130°53'0 0.0
2018-Apr-18 17:30N 33°54' E 130°53'0 0.0
2018-Apr-18 17:00N 33°54' E 130°53'0 0.0
2018-Apr-18 16:30N 33°54' E 130°53'0 0.0
2018-Apr-18 16:00N 33°54' E 130°53'0 0.0
2018-Apr-18 15:30N 33°54' E 130°53'0 0.0
2018-Apr-18 15:00N 33°54' E 130°53'0 0.0
2018-Apr-18 14:30N 33°54' E 130°53'0 0.0
2018-Apr-18 14:00N 33°54' E 130°53'0 0.0
2018-Apr-18 13:30N 33°54' E 130°53'0 0.0
2018-Apr-18 13:00N 33°54' E 130°53'0 0.0
2018-Apr-18 12:30N 33°54' E 130°53'0 0.0
2018-Apr-18 12:00N 33°54' E 130°53'0 0.0
2018-Apr-18 11:30N 33°54' E 130°53'0 0.0
2018-Apr-18 11:00N 33°54' E 130°53'0 0.0
2018-Apr-18 10:30N 33°54' E 130°53'0 0.0
2018-Apr-18 10:00N 33°54' E 130°53'0 0.0
2018-Apr-18 09:30N 33°54' E 130°53'0 0.0
2018-Apr-18 09:00N 33°54' E 130°53'1 1.5
2018-Apr-18 08:30N 33°54' E 130°53'1 1.3
2018-Apr-18 08:00N 33°54' E 130°53'0 0.0
2018-Apr-18 07:30N 33°54' E 130°53'0 0.0
2018-Apr-18 07:00N 33°54' E 130°53'0 0.0
2018-Apr-18 06:30N 33°54' E 130°53'0 0.0
2018-Apr-18 06:00N 33°54' E 130°53'0 0.0
2018-Apr-18 05:30N 33°54' E 130°53'0 0.0
2018-Apr-18 05:00N 33°54' E 130°53'0 0.0
2018-Apr-18 04:30N 33°54' E 130°53'0 0.0
2018-Apr-18 04:00N 33°54' E 130°53'1 1.1
2018-Apr-18 03:30N 33°55' E 130°53'1 1.2
2018-Apr-18 03:00N 33°54' E 130°53'0 0.0
2018-Apr-18 02:30N 33°54' E 130°53'0 0.0
2018-Apr-18 02:00N 33°54' E 130°53'0 0.0
2018-Apr-18 01:30N 33°54' E 130°53'0 0.0
2018-Apr-18 01:00N 33°54' E 130°53'0 0.0
2018-Apr-18 00:30N 33°54' E 130°53'0 0.0
2018-Apr-18 00:00N 33°54' E 130°53'0 0.0
2018-Apr-17 23:30N 33°54' E 130°53'0 0.0
2018-Apr-17 23:00N 33°54' E 130°53'0 0.0
2018-Apr-17 22:30N 33°54' E 130°53'2 3.8
2018-Apr-17 22:00N 33°55' E 130°55'4 8.3
2018-Apr-17 21:30N 33°58' E 130°58'3 6.8
2018-Apr-17 21:00N 33°58' E 131°02'2 4.1
2018-Apr-17 20:30N 33°56' E 131°02'0 0.0
2018-Apr-17 20:00N 33°56' E 131°02'0 0.0
2018-Apr-17 19:30N 33°56' E 131°02'0 0.0
2018-Apr-17 19:00N 33°56' E 131°02'0 0.0
2018-Apr-17 18:30N 33°56' E 131°02'0 0.0
2018-Apr-17 18:00N 33°56' E 131°02'0 0.0
2018-Apr-17 17:30N 33°56' E 131°02'0 0.0
2018-Apr-17 17:00N 33°56' E 131°02'0 0.0
2018-Apr-17 16:30N 33°56' E 131°02'0 0.0
2018-Apr-17 16:00N 33°56' E 131°02'0 0.1
2018-Apr-17 15:30N 33°56' E 131°02'0 0.1
2018-Apr-17 15:00N 33°56' E 131°02'0 0.0
2018-Apr-17 14:30N 33°56' E 131°02'0 0.0
2018-Apr-17 14:00N 33°56' E 131°02'0 0.0
2018-Apr-17 13:30N 33°56' E 131°02'0 0.0
2018-Apr-17 12:57N 33°56' E 131°02'0 0.0
2018-Apr-17 12:30N 33°56' E 131°02'0 0.0
2018-Apr-17 12:00N 33°56' E 131°02'0 0.0
2018-Apr-17 11:30N 33°56' E 131°02'2 4.4
2018-Apr-17 11:00N 33°55' E 131°04'612.5
2018-Apr-17 10:30N 33°52' E 131°11'612.8
2018-Apr-17 10:00N 33°51' E 131°19'612.4
2018-Apr-17 09:30N 33°49' E 131°26'612.2
2018-Apr-17 09:00N 33°50' E 131°33'612.2
2018-Apr-17 08:30N 33°48' E 131°40'1111.6
2018-Apr-17 07:33N 33°46' E 131°54'611.6
2018-Apr-17 07:01N 33°46' E 132°01'013.5
2018-Apr-17 06:59N 33°46' E 132°01'2312.6
2018-Apr-17 05:08N 33°52' E 132°29'313.2
2018-Apr-17 04:53N 33°53' E 132°32'513.3
2018-Apr-17 04:30N 33°55' E 132°38'8811.0
2018-Apr-16 20:29N 34°23' E 134°19'611.9
2018-Apr-16 20:00N 34°21' E 134°26'611.9
2018-Apr-16 19:28N 34°18' E 134°33'711.1
2018-Apr-16 18:52N 34°14' E 134°39'3 9.0
2018-Apr-16 18:30N 34°11' E 134°41'5 9.4
2018-Apr-16 18:00N 34°08' E 134°44'4 8.2
2018-Apr-16 17:30N 34°04' E 134°46'8 9.2
2018-Apr-16 16:41N 33°58' E 134°52'3 9.3
2018-Apr-16 16:24N 33°56' E 134°54'4 9.1
2018-Apr-16 16:00N 33°53' E 134°56'6 9.1
2018-Apr-16 15:23N 33°49' E 135°01'105 8.1
2018-Apr-16 02:24N 34°36' E 136°54'512.5
2018-Apr-16 02:00N 34°37' E 136°48'612.4
2018-Apr-16 01:30N 34°38' E 136°41'4 7.9
2018-Apr-16 00:58N 34°38' E 136°36'0 0.0
2018-Apr-15 23:45N 34°38' E 136°36'0 0.0
2018-Apr-15 23:12N 34°38' E 136°36'0 0.0
2018-Apr-15 22:57N 34°38' E 136°36'0 0.0
2018-Apr-15 19:39N 34°38' E 136°36'0 0.0
2018-Apr-15 19:27N 34°38' E 136°36'0 0.0
2018-Apr-15 18:57N 34°38' E 136°36'0 0.0
2018-Apr-15 18:21N 34°38' E 136°36'0 0.0
2018-Apr-15 16:51N 34°38' E 136°36'0 0.0
2018-Apr-15 16:09N 34°38' E 136°36'0 0.0
2018-Apr-15 15:57N 34°38' E 136°36'0 0.1
2018-Apr-15 15:21N 34°38' E 136°36'0 0.0
2018-Apr-15 14:57N 34°38' E 136°36'0 0.0
2018-Apr-15 13:57N 34°38' E 136°36'0 0.0
2018-Apr-15 13:27N 34°38' E 136°36'0 0.0
2018-Apr-15 12:57N 34°38' E 136°36'0 0.0
2018-Apr-15 12:27N 34°38' E 136°36'0 0.0
2018-Apr-15 11:45N 34°38' E 136°36'0 0.0
2018-Apr-15 11:15N 34°38' E 136°36'0 0.0
2018-Apr-15 10:57N 34°38' E 136°36'0 0.0
2018-Apr-15 10:21N 34°38' E 136°36'0 0.0
2018-Apr-15 09:57N 34°38' E 136°36'0 0.0
2018-Apr-15 09:21N 34°38' E 136°36'0 0.0
2018-Apr-15 08:51N 34°38' E 136°36'0 0.0
2018-Apr-15 08:09N 34°38' E 136°36'0 0.0
2018-Apr-15 07:51N 34°38' E 136°36'0 0.0
2018-Apr-15 07:27N 34°38' E 136°36'0 0.0
2018-Apr-15 06:45N 34°38' E 136°36'0 0.0
2018-Apr-15 06:21N 34°38' E 136°36'0 0.0
2018-Apr-15 05:42N 34°38' E 136°36'0 0.0
2018-Apr-15 05:30N 34°38' E 136°36'0 0.0
2018-Apr-15 02:57N 34°38' E 136°36'0 0.0
2018-Apr-15 02:27N 34°38' E 136°36'0 0.0
2018-Apr-15 01:51N 34°38' E 136°36'0 0.0
2018-Apr-15 01:30N 34°38' E 136°36'0 0.0
2018-Apr-15 00:15N 34°38' E 136°36'0 0.0
2018-Apr-14 22:57N 34°38' E 136°36'0 0.0
2018-Apr-14 22:27N 34°38' E 136°36'0 0.1
2018-Apr-14 21:39N 34°38' E 136°36'0 0.0
2018-Apr-14 20:09N 34°38' E 136°36'0 0.0
2018-Apr-14 16:03N 34°38' E 136°36'0 0.1
2018-Apr-14 15:57N 34°38' E 136°36'0 0.0
2018-Apr-14 15:27N 34°38' E 136°36'0 0.1
2018-Apr-14 11:43N 34°38' E 136°36'2 9.2
2018-Apr-14 11:30N 34°38' E 136°39'10711.3
2018-Apr-14 02:00N 34°35' E 138°49'510.7
2018-Apr-14 01:30N 34°35' E 138°55'710.9
2018-Apr-14 00:50N 34°40' E 139°02'411.0
2018-Apr-14 00:30N 34°43' E 139°05'711.9
2018-Apr-13 23:57N 34°47' E 139°11'2210.7
2018-Apr-13 21:51N 35°01' E 139°33'510.9
2018-Apr-13 21:24N 35°04' E 139°37'511.9
2018-Apr-13 21:00N 35°07' E 139°42'612.0
2018-Apr-13 20:30N 35°12' E 139°46'611.5
2018-Apr-13 20:00N 35°17' E 139°45'611.4
2018-Apr-13 19:30N 35°23' E 139°42'5 9.6
2018-Apr-13 19:00N 35°25' E 139°48'5 9.3
2018-Apr-13 18:30N 35°21' E 139°51'0 0.0
2018-Apr-13 18:00N 35°21' E 139°51'0 0.0
2018-Apr-13 17:30N 35°21' E 139°51'0 0.0
2018-Apr-13 17:00N 35°21' E 139°51'0 0.0
2018-Apr-13 16:30N 35°21' E 139°51'0 0.0
2018-Apr-13 16:00N 35°21' E 139°51'0 0.0
2018-Apr-13 15:30N 35°21' E 139°51'0 0.0
2018-Apr-13 15:00N 35°21' E 139°51'0 0.0
2018-Apr-13 14:30N 35°21' E 139°51'0 0.0
2018-Apr-13 14:00N 35°21' E 139°51'0 0.1
2018-Apr-13 13:31N 35°21' E 139°51'2 3.4
2018-Apr-13 13:00N 35°22' E 139°49'0 0.0
2018-Apr-13 12:30N 35°22' E 139°49'0 0.0
2018-Apr-13 12:00N 35°22' E 139°49'0 0.0
2018-Apr-13 11:30N 35°22' E 139°49'0 0.0
2018-Apr-13 10:54N 35°22' E 139°49'0 0.0
2018-Apr-13 10:30N 35°22' E 139°49'0 0.0
2018-Apr-13 09:57N 35°22' E 139°49'  
Track history (hours):
 
Tides and Currents Weather Stations Pressure Air Temp Water Temp Dewpoint Dewpoint Depression Visibility Wind Speed Wind Dir Waves Ship Positions

Tenjinmaru No11

Last reported at 2018-Apr-23 09:30 UTC. Time now 2018-Apr-23 09:52 UTC.
Position N 35°21' E 139°40'.

Length 75 m; draft 4.8 m.

Type: Cargo ship. MMSI: 431003485.

Date/timePositionNaut miles runAvg speedWind from/ knotsBaromVisibWave heightAir tempDewpointWater temp
2018-Apr-23 09:30N 35°21' E 139°40'0 0.0
2018-Apr-23 09:01N 35°21' E 139°40'0 0.0
2018-Apr-23 08:30N 35°21' E 139°40'0 0.0
2018-Apr-23 08:00N 35°21' E 139°40'0 0.0
2018-Apr-23 07:30N 35°21' E 139°40'0 0.0
2018-Apr-23 07:00N 35°21' E 139°40'0 0.0
2018-Apr-23 06:30N 35°21' E 139°40'0 0.0
2018-Apr-23 06:00N 35°21' E 139°40'0 0.0
2018-Apr-23 05:30N 35°21' E 139°40'0 0.0
2018-Apr-23 05:00N 35°21' E 139°40'1 1.7
2018-Apr-23 04:30N 35°22' E 139°41'510.4
2018-Apr-23 04:01N 35°27' E 139°43'0 0.1
2018-Apr-23 03:28N 35°27' E 139°43'0 0.0
2018-Apr-23 03:00N 35°27' E 139°43'0 0.0
2018-Apr-23 02:28N 35°27' E 139°43'1 1.8
2018-Apr-23 02:01N 35°26' E 139°43'510.7
2018-Apr-23 01:30N 35°23' E 139°49'3 4.8
2018-Apr-23 00:54N 35°21' E 139°51'0 0.0
2018-Apr-23 00:30N 35°21' E 139°51'0 0.1
2018-Apr-22 23:52N 35°21' E 139°51'0 0.2
2018-Apr-22 23:30N 35°21' E 139°51'0 0.2
2018-Apr-22 22:59N 35°21' E 139°51'0 0.4
2018-Apr-22 22:29N 35°21' E 139°51'0 0.7
2018-Apr-22 22:00N 35°21' E 139°51'0 0.4
2018-Apr-22 21:28N 35°21' E 139°51'0 0.2
2018-Apr-22 20:53N 35°21' E 139°51'0 0.1
2018-Apr-22 20:21N 35°21' E 139°51'0 0.0
2018-Apr-22 19:19N 35°21' E 139°51'0 0.2
2018-Apr-22 18:58N 35°21' E 139°51'0 0.0
2018-Apr-22 18:29N 35°21' E 139°51'0 0.0
2018-Apr-22 17:35N 35°21' E 139°51'0 0.5
2018-Apr-22 17:30N 35°21' E 139°51'0 0.0
2018-Apr-22 17:00N 35°21' E 139°51'0 0.2
2018-Apr-22 16:30N 35°21' E 139°51'0 0.1
2018-Apr-22 16:00N 35°21' E 139°51'0 0.2
2018-Apr-22 15:30N 35°21' E 139°51'0 0.0
2018-Apr-22 15:00N 35°21' E 139°51'0 0.0
2018-Apr-22 14:30N 35°21' E 139°51'2 3.1
2018-Apr-22 14:00N 35°22' E 139°50'0 0.7
2018-Apr-22 13:31N 35°22' E 139°49'0 0.0
2018-Apr-22 13:01N 35°22' E 139°49'0 0.0
2018-Apr-22 12:31N 35°22' E 139°49'0 0.0
2018-Apr-22 12:00N 35°22' E 139°49'0 0.0
2018-Apr-22 11:31N 35°22' E 139°49'0 0.0
2018-Apr-22 11:00N 35°22' E 139°49'0 0.0
2018-Apr-22 10:31N 35°22' E 139°49'0 0.0
2018-Apr-22 10:01N 35°22' E 139°49'0 0.0
2018-Apr-22 09:30N 35°22' E 139°49'0 0.0
2018-Apr-22 09:00N 35°22' E 139°49'0 0.0
2018-Apr-22 08:30N 35°22' E 139°49'0 0.0
2018-Apr-22 08:00N 35°22' E 139°49'0 0.0
2018-Apr-22 07:30N 35°22' E 139°49'0 0.0
2018-Apr-22 07:00N 35°22' E 139°49'0 0.0
2018-Apr-22 06:30N 35°22' E 139°49'0 0.0
2018-Apr-22 06:00N 35°22' E 139°49'0 0.0
2018-Apr-22 05:30N 35°22' E 139°49'2 3.2
2018-Apr-22 05:00N 35°23' E 139°50'611.1
2018-Apr-22 04:30N 35°29' E 139°51'611.2
2018-Apr-22 03:59N 35°34' E 139°55'511.2
2018-Apr-22 03:30N 35°38' E 139°58'2 0.5
2018-Apr-21 23:01N 35°41' E 139°58'2 8.0
2018-Apr-21 22:47N 35°39' E 139°58'2 5.7
2018-Apr-21 22:29N 35°37' E 139°58'3 5.4
2018-Apr-21 22:01N 35°35' E 139°56'510.3
2018-Apr-21 21:30N 35°30' E 139°53'510.3
2018-Apr-21 21:00N 35°26' E 139°49'510.1
2018-Apr-21 20:31N 35°22' E 139°46'5 9.7
2018-Apr-21 20:00N 35°17' E 139°45'510.7
2018-Apr-21 19:30N 35°12' E 139°47'611.1
2018-Apr-21 19:00N 35°07' E 139°45'510.8
2018-Apr-21 18:30N 35°03' E 139°40'510.7
2018-Apr-21 18:01N 34°59' E 139°35'611.7
2018-Apr-21 17:29N 34°56' E 139°30'712.4
2018-Apr-21 16:58N 34°52' E 139°23'612.7
2018-Apr-21 16:29N 34°49' E 139°17'1112.7
2018-Apr-21 15:39N 34°42' E 139°07'212.3
2018-Apr-21 15:30N 34°41' E 139°05'611.5
2018-Apr-21 15:00N 34°37' E 138°60'711.1
2018-Apr-21 14:25N 34°34' E 138°53'511.6
2018-Apr-21 14:00N 34°34' E 138°47'711.6
2018-Apr-21 13:25N 34°33' E 138°39'511.5
2018-Apr-21 12:59N 34°32' E 138°33'511.3
2018-Apr-21 12:30N 34°32' E 138°26'611.2
2018-Apr-21 11:59N 34°32' E 138°19'711.3
2018-Apr-21 11:22N 34°31' E 138°11'611.7
2018-Apr-21 10:51N 34°30' E 138°03'1911.6
2018-Apr-21 09:15N 34°25' E 137°42'1111.5
2018-Apr-21 08:15N 34°21' E 137°29'711.5
2018-Apr-21 07:38N 34°19' E 137°20'1311.3
2018-Apr-21 06:26N 34°15' E 137°05'1711.1
2018-Apr-21 04:55N 34°05' E 136°48'511.3
2018-Apr-21 04:30N 34°03' E 136°44'611.4
2018-Apr-21 03:57N 33°59' E 136°38'1611.2
2018-Apr-21 02:31N 33°49' E 136°22'110.9
2018-Apr-21 02:24N 33°48' E 136°21'65 8.5
2018-Apr-20 18:42N 33°50' E 135°02'211.6
2018-Apr-20 18:31N 33°52' E 135°00'611.6
2018-Apr-20 18:00N 33°56' E 134°56'611.5
2018-Apr-20 17:31N 34°01' E 134°51'611.5
2018-Apr-20 17:00N 34°05' E 134°47'611.5
2018-Apr-20 16:28N 34°10' E 134°43'511.5
2018-Apr-20 16:00N 34°14' E 134°39'5 9.9
2018-Apr-20 15:30N 34°18' E 134°35'510.0
2018-Apr-20 15:01N 34°21' E 134°30'0 0.1
2018-Apr-20 14:30N 34°21' E 134°30'0 0.5
2018-Apr-20 14:00N 34°21' E 134°30'0 0.3
2018-Apr-20 13:30N 34°21' E 134°30'0 1.0
2018-Apr-20 13:00N 34°21' E 134°30'4 9.0
2018-Apr-20 12:31N 34°22' E 134°25'5 9.7
2018-Apr-20 12:00N 34°23' E 134°19'5 9.2
2018-Apr-20 11:30N 34°24' E 134°13'76 9.7
2018-Apr-20 03:40N 34°01' E 132°46'211.8
2018-Apr-20 03:30N 33°59' E 132°44'611.8
2018-Apr-20 03:00N 33°55' E 132°40'2911.1
2018-Apr-20 00:21N 33°42' E 132°08'410.6
2018-Apr-20 00:00N 33°42' E 132°04'510.5
2018-Apr-19 23:30N 33°43' E 131°58'510.5
2018-Apr-19 23:00N 33°44' E 131°52'610.9
2018-Apr-19 22:30N 33°45' E 131°45'611.1
2018-Apr-19 22:00N 33°46' E 131°39'611.6
2018-Apr-19 21:30N 33°48' E 131°32'611.7
2018-Apr-19 20:58N 33°49' E 131°24'611.7
2018-Apr-19 20:30N 33°50' E 131°18'612.0
2018-Apr-19 20:00N 33°52' E 131°11'612.1
2018-Apr-19 19:30N 33°55' E 131°05'611.4
2018-Apr-19 19:00N 33°58' E 130°59'611.2
2018-Apr-19 18:31N 33°54' E 130°55'2 3.8
2018-Apr-19 18:00N 33°54' E 130°53'0 0.0
2018-Apr-19 17:30N 33°54' E 130°53'0 0.0
2018-Apr-19 17:00N 33°54' E 130°53'0 0.0
2018-Apr-19 16:30N 33°54' E 130°53'0 0.0
2018-Apr-19 16:00N 33°54' E 130°53'0 0.0
2018-Apr-19 15:30N 33°54' E 130°53'0 0.0
2018-Apr-19 15:00N 33°54' E 130°53'0 0.0
2018-Apr-19 14:30N 33°54' E 130°53'0 0.0
2018-Apr-19 14:00N 33°54' E 130°53'0 0.0
2018-Apr-19 13:30N 33°54' E 130°53'0 0.0
2018-Apr-19 13:00N 33°54' E 130°53'0 0.0
2018-Apr-19 12:30N 33°54' E 130°53'0 0.0
2018-Apr-19 12:00N 33°54' E 130°53'0 0.0
2018-Apr-19 11:30N 33°54' E 130°53'0 0.0
2018-Apr-19 11:00N 33°54' E 130°53'0 0.0
2018-Apr-19 10:30N 33°54' E 130°53'0 0.0
2018-Apr-19 10:00N 33°54' E 130°53'0 0.0
2018-Apr-19 09:30N 33°54' E 130°53'0 0.0
2018-Apr-19 09:00N 33°54' E 130°53'0 0.0
2018-Apr-19 08:30N 33°54' E 130°53'0 0.0
2018-Apr-19 08:00N 33°54' E 130°53'0 0.0
2018-Apr-19 07:30N 33°54' E 130°53'0 0.0
2018-Apr-19 07:00N 33°54' E 130°53'0 0.0
2018-Apr-19 06:30N 33°54' E 130°53'0 0.0
2018-Apr-19 06:00N 33°54' E 130°53'0 0.0
2018-Apr-19 05:30N 33°54' E 130°53'0 0.0
2018-Apr-19 05:00N 33°54' E 130°53'0 0.0
2018-Apr-19 04:30N 33°54' E 130°53'0 0.0
2018-Apr-19 04:00N 33°54' E 130°53'0 0.0
2018-Apr-19 03:30N 33°54' E 130°53'0 0.0
2018-Apr-19 03:00N 33°54' E 130°53'0 0.0
2018-Apr-19 02:30N 33°54' E 130°53'0 0.0
2018-Apr-19 02:00N 33°54' E 130°53'0 0.0
2018-Apr-19 01:30N 33°54' E 130°53'0 0.0
2018-Apr-19 01:00N 33°54' E 130°53'0 0.0
2018-Apr-19 00:30N 33°54' E 130°53'0 0.0
2018-Apr-19 00:00N 33°54' E 130°53'0 0.0
2018-Apr-18 23:30N 33°54' E 130°53'0 0.0
2018-Apr-18 23:00N 33°54' E 130°53'0 0.0
2018-Apr-18 22:30N 33°54' E 130°53'0 0.0
2018-Apr-18 22:00N 33°54' E 130°53'0 0.0
2018-Apr-18 21:30N 33°54' E 130°53'0 0.0
2018-Apr-18 21:00N 33°54' E 130°53'0 0.0
2018-Apr-18 20:30N 33°54' E 130°53'0 0.0
2018-Apr-18 20:00N 33°54' E 130°53'0 0.0
2018-Apr-18 19:30N 33°54' E 130°53'0 0.0
2018-Apr-18 19:00N 33°54' E 130°53'0 0.0
2018-Apr-18 18:30N 33°54' E 130°53'0 0.0
2018-Apr-18 18:00N 33°54' E 130°53'0 0.0
2018-Apr-18 17:30N 33°54' E 130°53'0 0.0
2018-Apr-18 17:00N 33°54' E 130°53'0 0.0
2018-Apr-18 16:30N 33°54' E 130°53'0 0.0
2018-Apr-18 16:00N 33°54' E 130°53'0 0.0
2018-Apr-18 15:30N 33°54' E 130°53'0 0.0
2018-Apr-18 15:00N 33°54' E 130°53'0 0.0
2018-Apr-18 14:30N 33°54' E 130°53'0 0.0
2018-Apr-18 14:00N 33°54' E 130°53'0 0.0
2018-Apr-18 13:30N 33°54' E 130°53'0 0.0
2018-Apr-18 13:00N 33°54' E 130°53'0 0.0
2018-Apr-18 12:30N 33°54' E 130°53'0 0.0
2018-Apr-18 12:00N 33°54' E 130°53'0 0.0
2018-Apr-18 11:30N 33°54' E 130°53'0 0.0
2018-Apr-18 11:00N 33°54' E 130°53'0 0.0
2018-Apr-18 10:30N 33°54' E 130°53'0 0.0
2018-Apr-18 10:00N 33°54' E 130°53'0 0.0
2018-Apr-18 09:30N 33°54' E 130°53'0 0.0
2018-Apr-18 09:00N 33°54' E 130°53'1 1.5
2018-Apr-18 08:30N 33°54' E 130°53'1 1.3
2018-Apr-18 08:00N 33°54' E 130°53'0 0.0
2018-Apr-18 07:30N 33°54' E 130°53'0 0.0
2018-Apr-18 07:00N 33°54' E 130°53'0 0.0
2018-Apr-18 06:30N 33°54' E 130°53'0 0.0
2018-Apr-18 06:00N 33°54' E 130°53'0 0.0
2018-Apr-18 05:30N 33°54' E 130°53'0 0.0
2018-Apr-18 05:00N 33°54' E 130°53'0 0.0
2018-Apr-18 04:30N 33°54' E 130°53'0 0.0
2018-Apr-18 04:00N 33°54' E 130°53'1 1.1
2018-Apr-18 03:30N 33°55' E 130°53'1 1.2
2018-Apr-18 03:00N 33°54' E 130°53'0 0.0
2018-Apr-18 02:30N 33°54' E 130°53'0 0.0
2018-Apr-18 02:00N 33°54' E 130°53'0 0.0
2018-Apr-18 01:30N 33°54' E 130°53'0 0.0
2018-Apr-18 01:00N 33°54' E 130°53'0 0.0
2018-Apr-18 00:30N 33°54' E 130°53'0 0.0
2018-Apr-18 00:00N 33°54' E 130°53'0 0.0
2018-Apr-17 23:30N 33°54' E 130°53'0 0.0
2018-Apr-17 23:00N 33°54' E 130°53'0 0.0
2018-Apr-17 22:30N 33°54' E 130°53'2 3.8
2018-Apr-17 22:00N 33°55' E 130°55'4 8.3
2018-Apr-17 21:30N 33°58' E 130°58'3 6.8
2018-Apr-17 21:00N 33°58' E 131°02'2 4.1
2018-Apr-17 20:30N 33°56' E 131°02'0 0.0
2018-Apr-17 20:00N 33°56' E 131°02'0 0.0
2018-Apr-17 19:30N 33°56' E 131°02'0 0.0
2018-Apr-17 19:00N 33°56' E 131°02'0 0.0
2018-Apr-17 18:30N 33°56' E 131°02'0 0.0
2018-Apr-17 18:00N 33°56' E 131°02'0 0.0
2018-Apr-17 17:30N 33°56' E 131°02'0 0.0
2018-Apr-17 17:00N 33°56' E 131°02'0 0.0
2018-Apr-17 16:30N 33°56' E 131°02'0 0.0
2018-Apr-17 16:00N 33°56' E 131°02'0 0.1
2018-Apr-17 15:30N 33°56' E 131°02'0 0.1
2018-Apr-17 15:00N 33°56' E 131°02'0 0.0
2018-Apr-17 14:30N 33°56' E 131°02'0 0.0
2018-Apr-17 14:00N 33°56' E 131°02'0 0.0
2018-Apr-17 13:30N 33°56' E 131°02'0 0.0
2018-Apr-17 12:57N 33°56' E 131°02'0 0.0
2018-Apr-17 12:30N 33°56' E 131°02'0 0.0
2018-Apr-17 12:00N 33°56' E 131°02'0 0.0
2018-Apr-17 11:30N 33°56' E 131°02'2 4.4
2018-Apr-17 11:00N 33°55' E 131°04'612.5
2018-Apr-17 10:30N 33°52' E 131°11'612.8
2018-Apr-17 10:00N 33°51' E 131°19'612.4
2018-Apr-17 09:30N 33°49' E 131°26'612.2
2018-Apr-17 09:00N 33°50' E 131°33'612.2
2018-Apr-17 08:30N 33°48' E 131°40'1111.6
2018-Apr-17 07:33N 33°46' E 131°54'611.6
2018-Apr-17 07:01N 33°46' E 132°01'013.5
2018-Apr-17 06:59N 33°46' E 132°01'2312.6
2018-Apr-17 05:08N 33°52' E 132°29'313.2
2018-Apr-17 04:53N 33°53' E 132°32'513.3
2018-Apr-17 04:30N 33°55' E 132°38'8811.0
2018-Apr-16 20:29N 34°23' E 134°19'611.9
2018-Apr-16 20:00N 34°21' E 134°26'611.9
2018-Apr-16 19:28N 34°18' E 134°33'711.1
2018-Apr-16 18:52N 34°14' E 134°39'3 9.0
2018-Apr-16 18:30N 34°11' E 134°41'5 9.4
2018-Apr-16 18:00N 34°08' E 134°44'4 8.2
2018-Apr-16 17:30N 34°04' E 134°46'8 9.2
2018-Apr-16 16:41N 33°58' E 134°52'3 9.3
2018-Apr-16 16:24N 33°56' E 134°54'4 9.1
2018-Apr-16 16:00N 33°53' E 134°56'6 9.1
2018-Apr-16 15:23N 33°49' E 135°01'105 8.1
2018-Apr-16 02:24N 34°36' E 136°54'512.5
2018-Apr-16 02:00N 34°37' E 136°48'612.4
2018-Apr-16 01:30N 34°38' E 136°41'4 7.9
2018-Apr-16 00:58N 34°38' E 136°36'0 0.0
2018-Apr-15 23:45N 34°38' E 136°36'0 0.0
2018-Apr-15 23:12N 34°38' E 136°36'0 0.0
2018-Apr-15 22:57N 34°38' E 136°36'0 0.0
2018-Apr-15 19:39N 34°38' E 136°36'0 0.0
2018-Apr-15 19:27N 34°38' E 136°36'0 0.0
2018-Apr-15 18:57N 34°38' E 136°36'0 0.0
2018-Apr-15 18:21N 34°38' E 136°36'0 0.0
2018-Apr-15 16:51N 34°38' E 136°36'0 0.0
2018-Apr-15 16:09N 34°38' E 136°36'0 0.0
2018-Apr-15 15:57N 34°38' E 136°36'0 0.1
2018-Apr-15 15:21N 34°38' E 136°36'0 0.0
2018-Apr-15 14:57N 34°38' E 136°36'0 0.0
2018-Apr-15 13:57N 34°38' E 136°36'0 0.0
2018-Apr-15 13:27N 34°38' E 136°36'0 0.0
2018-Apr-15 12:57N 34°38' E 136°36'0 0.0
2018-Apr-15 12:27N 34°38' E 136°36'0 0.0
2018-Apr-15 11:45N 34°38' E 136°36'0 0.0
2018-Apr-15 11:15N 34°38' E 136°36'0 0.0
2018-Apr-15 10:57N 34°38' E 136°36'0 0.0
2018-Apr-15 10:21N 34°38' E 136°36'0 0.0
2018-Apr-15 09:57N 34°38' E 136°36'0 0.0
2018-Apr-15 09:21N 34°38' E 136°36'0 0.0
2018-Apr-15 08:51N 34°38' E 136°36'0 0.0
2018-Apr-15 08:09N 34°38' E 136°36'0 0.0
2018-Apr-15 07:51N 34°38' E 136°36'0 0.0
2018-Apr-15 07:27N 34°38' E 136°36'0 0.0
2018-Apr-15 06:45N 34°38' E 136°36'0 0.0
2018-Apr-15 06:21N 34°38' E 136°36'0 0.0
2018-Apr-15 05:42N 34°38' E 136°36'0 0.0
2018-Apr-15 05:30N 34°38' E 136°36'0 0.0
2018-Apr-15 02:57N 34°38' E 136°36'0 0.0
2018-Apr-15 02:27N 34°38' E 136°36'0 0.0
2018-Apr-15 01:51N 34°38' E 136°36'0 0.0
2018-Apr-15 01:30N 34°38' E 136°36'0 0.0
2018-Apr-15 00:15N 34°38' E 136°36'0 0.0
2018-Apr-14 22:57N 34°38' E 136°36'0 0.0
2018-Apr-14 22:27N 34°38' E 136°36'0 0.1
2018-Apr-14 21:39N 34°38' E 136°36'0 0.0
2018-Apr-14 20:09N 34°38' E 136°36'0 0.0
2018-Apr-14 16:03N 34°38' E 136°36'0 0.1
2018-Apr-14 15:57N 34°38' E 136°36'0 0.0
2018-Apr-14 15:27N 34°38' E 136°36'0 0.1
2018-Apr-14 11:43N 34°38' E 136°36'2 9.2
2018-Apr-14 11:30N 34°38' E 136°39'10711.3
2018-Apr-14 02:00N 34°35' E 138°49'510.7
2018-Apr-14 01:30N 34°35' E 138°55'710.9
2018-Apr-14 00:50N 34°40' E 139°02'411.0
2018-Apr-14 00:30N 34°43' E 139°05'711.9
2018-Apr-13 23:57N 34°47' E 139°11'2210.7
2018-Apr-13 21:51N 35°01' E 139°33'510.9
2018-Apr-13 21:24N 35°04' E 139°37'511.9
2018-Apr-13 21:00N 35°07' E 139°42'612.0
2018-Apr-13 20:30N 35°12' E 139°46'611.5
2018-Apr-13 20:00N 35°17' E 139°45'611.4
2018-Apr-13 19:30N 35°23' E 139°42'5 9.6
2018-Apr-13 19:00N 35°25' E 139°48'5 9.3
2018-Apr-13 18:30N 35°21' E 139°51'0 0.0
2018-Apr-13 18:00N 35°21' E 139°51'0 0.0
2018-Apr-13 17:30N 35°21' E 139°51'0 0.0
2018-Apr-13 17:00N 35°21' E 139°51'0 0.0
2018-Apr-13 16:30N 35°21' E 139°51'0 0.0
2018-Apr-13 16:00N 35°21' E 139°51'0 0.0
2018-Apr-13 15:30N 35°21' E 139°51'0 0.0
2018-Apr-13 15:00N 35°21' E 139°51'0 0.0
2018-Apr-13 14:30N 35°21' E 139°51'0 0.0
2018-Apr-13 14:00N 35°21' E 139°51'0 0.1
2018-Apr-13 13:31N 35°21' E 139°51'2 3.4
2018-Apr-13 13:00N 35°22' E 139°49'0 0.0
2018-Apr-13 12:30N 35°22' E 139°49'0 0.0
2018-Apr-13 12:00N 35°22' E 139°49'0 0.0
2018-Apr-13 11:30N 35°22' E 139°49'0 0.0
2018-Apr-13 10:54N 35°22' E 139°49'0 0.0
2018-Apr-13 10:30N 35°22' E 139°49'0 0.0
2018-Apr-13 09:57N 35°22' E 139°49'  

Dump ship's entire track history